createdAt,value
2019-03-19T00:00:24.081Z,91994.20
2019-03-19T00:03:12.687Z,91985.83
2019-03-19T00:06:01.587Z,91995.86
2019-03-19T00:08:49.613Z,91987.59
2019-03-19T00:11:38.120Z,91994.78
2019-03-19T00:14:26.904Z,91984.02
2019-03-19T00:17:15.028Z,91985.40
2019-03-19T00:20:03.511Z,91981.16
2019-03-19T00:22:52.023Z,91978.25
2019-03-19T00:25:43.196Z,91980.41
2019-03-19T00:28:31.052Z,91978.22
2019-03-19T00:31:19.611Z,91978.66
2019-03-19T00:34:07.756Z,91974.62
2019-03-19T00:36:55.941Z,91964.91
2019-03-19T00:39:44.565Z,91967.25
2019-03-19T00:42:32.794Z,91973.28
2019-03-19T00:45:20.925Z,91966.17
2019-03-19T00:48:09.418Z,91970.59
2019-03-19T00:50:57.741Z,91960.02
2019-03-19T00:53:45.651Z,91960.83
2019-03-19T00:56:33.925Z,91957.73
2019-03-19T00:59:22.146Z,91952.69
2019-03-19T01:02:10.659Z,91953.53
2019-03-19T01:04:59.563Z,91951.00
2019-03-19T01:07:47.611Z,91945.91
2019-03-19T01:10:35.991Z,91949.72
2019-03-19T01:13:24.634Z,91947.91
2019-03-19T01:16:12.794Z,91951.36
2019-03-19T01:19:00.998Z,91945.34
2019-03-19T01:21:49.191Z,91949.77
2019-03-19T01:24:37.304Z,91947.51
2019-03-19T01:27:26.743Z,91951.64
2019-03-19T01:30:15.499Z,91960.45
2019-03-19T01:33:03.823Z,91953.45
2019-03-19T01:35:51.868Z,91955.98
2019-03-19T01:38:40.658Z,91954.55
2019-03-19T01:41:28.463Z,91955.66
2019-03-19T01:44:16.935Z,91955.45
2019-03-19T01:47:04.685Z,91959.15
2019-03-19T01:49:53.139Z,91960.49
2019-03-19T01:52:41.850Z,91961.32
2019-03-19T01:55:30.023Z,91957.27
2019-03-19T01:58:18.036Z,91957.23
2019-03-19T02:01:06.472Z,91953.33
2019-03-19T02:03:55.018Z,91957.42
2019-03-19T02:06:43.490Z,91962.88
2019-03-19T02:09:32.203Z,91965.22
2019-03-19T02:12:19.986Z,91958.72
2019-03-19T02:15:08.307Z,91962.65
2019-03-19T02:17:57.232Z,91963.42
2019-03-19T02:20:46.234Z,91969.27
2019-03-19T02:23:34.544Z,91968.03
2019-03-19T02:26:22.556Z,91974.58
2019-03-19T02:29:11.092Z,91971.28
2019-03-19T02:31:59.062Z,91975.53
2019-03-19T02:34:47.474Z,91982.02
2019-03-19T02:37:35.640Z,91980.52
2019-03-19T02:40:24.613Z,91980.03
2019-03-19T02:43:12.452Z,91985.30
2019-03-19T02:46:00.734Z,91986.41
2019-03-19T02:48:48.701Z,91981.40
2019-03-19T02:51:36.793Z,91983.55
2019-03-19T02:54:24.593Z,91987.52
2019-03-19T02:57:13.180Z,91989.11
2019-03-19T03:00:01.149Z,91993.56
2019-03-19T03:02:49.312Z,91996.94
2019-03-19T03:05:38.248Z,91992.53
2019-03-19T03:08:26.001Z,91990.24
2019-03-19T03:11:14.770Z,91988.55
2019-03-19T03:14:02.264Z,91996.25
2019-03-19T03:16:50.804Z,91995.23
2019-03-19T03:19:39.317Z,91992.22
2019-03-19T03:22:27.880Z,91990.79
2019-03-19T03:25:16.030Z,91995.17
2019-03-19T03:28:04.536Z,91996.52
2019-03-19T03:30:52.323Z,91996.70
2019-03-19T03:33:41.267Z,92000.69
2019-03-19T03:36:29.652Z,92003.25
2019-03-19T03:39:17.763Z,92005.08
2019-03-19T03:42:06.228Z,92000.91
2019-03-19T03:44:54.414Z,92010.55
2019-03-19T03:47:42.586Z,92012.53
2019-03-19T03:50:32.861Z,92013.34
2019-03-19T03:53:21.712Z,92011.47
2019-03-19T03:56:09.543Z,92019.03
2019-03-19T03:59:01.069Z,92023.16
2019-03-19T04:01:47.510Z,92020.97
2019-03-19T04:04:36.477Z,92016.41
2019-03-19T04:07:24.947Z,92017.42
2019-03-19T04:10:13.187Z,92022.11
2019-03-19T04:13:01.742Z,92023.25
2019-03-19T04:15:50.287Z,92023.92
2019-03-19T04:18:38.596Z,92020.27
2019-03-19T04:21:27.125Z,92017.42
2019-03-19T04:24:15.554Z,92020.19
2019-03-19T04:27:15.473Z,92023.76
2019-03-19T04:29:54.929Z,92023.25
2019-03-19T04:32:42.728Z,92019.27
2019-03-19T04:35:31.209Z,92023.52
2019-03-19T04:38:19.799Z,92025.67
2019-03-19T04:41:08.309Z,92016.58
2019-03-19T04:43:56.938Z,92020.09
2019-03-19T04:46:45.035Z,92034.80
2019-03-19T04:49:33.195Z,92036.03
2019-03-19T04:52:21.259Z,92035.27
2019-03-19T04:55:09.937Z,92037.26
2019-03-19T04:57:57.907Z,92034.67
2019-03-19T05:00:46.395Z,92040.88
2019-03-19T05:03:35.824Z,92041.33
2019-03-19T05:06:23.951Z,92038.30
2019-03-19T05:09:12.589Z,92039.19
2019-03-19T05:12:00.478Z,92035.17
2019-03-19T05:14:48.968Z,92042.59
2019-03-19T05:17:37.559Z,92049.13
2019-03-19T05:20:25.264Z,92042.94
2019-03-19T05:23:13.787Z,92044.18
2019-03-19T05:26:02.215Z,92049.39
2019-03-19T05:28:50.695Z,92046.91
2019-03-19T05:31:38.863Z,92047.58
2019-03-19T05:34:27.193Z,92049.84
2019-03-19T05:37:15.782Z,92057.58
2019-03-19T05:40:04.323Z,92054.83
2019-03-19T05:42:52.176Z,92056.51
2019-03-19T05:45:40.686Z,92061.09
2019-03-19T05:48:28.515Z,92064.13
2019-03-19T05:51:16.954Z,92066.73
2019-03-19T05:54:05.174Z,92063.16
2019-03-19T05:56:56.828Z,92061.34
2019-03-19T05:59:45.092Z,92062.45
2019-03-19T06:02:33.700Z,92063.12
2019-03-19T06:05:22.122Z,92067.08
2019-03-19T06:08:10.528Z,92059.80
2019-03-19T06:10:59.036Z,92062.71
2019-03-19T06:13:48.031Z,92062.73
2019-03-19T06:16:36.569Z,92067.20
2019-03-19T06:19:25.032Z,92064.97
2019-03-19T06:22:13.445Z,92057.52
2019-03-19T06:25:01.631Z,92067.81
2019-03-19T06:27:59.966Z,92062.42
2019-03-19T06:30:40.034Z,92066.02
2019-03-19T06:33:28.164Z,92063.19
2019-03-19T06:36:16.601Z,92061.75
2019-03-19T06:39:06.883Z,92059.47
2019-03-19T06:41:55.181Z,92061.00
2019-03-19T06:44:44.181Z,92057.90
2019-03-19T06:47:32.433Z,92055.69
2019-03-19T06:50:20.933Z,92055.77
2019-03-19T06:53:08.986Z,92052.99
2019-03-19T06:55:56.814Z,92051.02
2019-03-19T06:58:45.607Z,92057.58
2019-03-19T07:01:33.834Z,92055.28
2019-03-19T07:04:22.242Z,92056.28
2019-03-19T07:07:10.844Z,92051.81
2019-03-19T07:09:58.660Z,92051.55
2019-03-19T07:12:46.759Z,92055.73
2019-03-19T07:15:35.259Z,92052.70
2019-03-19T07:18:23.775Z,92051.21
2019-03-19T07:21:11.931Z,92052.84
2019-03-19T07:23:59.881Z,92060.15
2019-03-19T07:26:47.678Z,92058.58
2019-03-19T07:29:35.961Z,92057.49
2019-03-19T07:32:24.830Z,92061.68
2019-03-19T07:35:13.410Z,92058.73
2019-03-19T07:38:01.467Z,92057.95
2019-03-19T07:40:50.186Z,92059.86
2019-03-19T07:43:38.322Z,92049.72
2019-03-19T07:46:26.223Z,92048.72
2019-03-19T07:49:14.407Z,92050.70
2019-03-19T07:52:02.899Z,92053.23
2019-03-19T07:54:51.121Z,92048.31
2019-03-19T07:57:39.289Z,92048.10
2019-03-19T08:00:27.690Z,92042.54
2019-03-19T08:03:16.602Z,92039.47
2019-03-19T08:06:05.316Z,92036.23
2019-03-19T08:08:53.917Z,92035.97
2019-03-19T08:11:42.068Z,92033.41
2019-03-19T08:14:30.167Z,92024.67
2019-03-19T08:17:18.625Z,92027.31
2019-03-19T08:20:06.618Z,92027.02
2019-03-19T08:22:55.237Z,92024.20
2019-03-19T08:25:42.882Z,92018.99
2019-03-19T08:28:33.653Z,92020.91
2019-03-19T08:31:21.062Z,92010.73
2019-03-19T08:34:09.761Z,92014.42
2019-03-19T08:36:58.139Z,92009.12
2019-03-19T08:39:46.588Z,92012.02
2019-03-19T08:42:35.696Z,92002.66
2019-03-19T08:45:23.748Z,92003.48
2019-03-19T08:48:15.277Z,91998.89
2019-03-19T08:51:03.937Z,92000.42
2019-03-19T08:53:51.894Z,92000.53
2019-03-19T08:56:39.653Z,91993.64
2019-03-19T08:59:28.653Z,91996.85
2019-03-19T09:02:16.492Z,91987.52
2019-03-19T09:05:05.043Z,91991.64
2019-03-19T09:07:53.227Z,91988.44
2019-03-19T09:10:41.757Z,91987.45
2019-03-19T09:13:30.317Z,91986.80
2019-03-19T09:16:18.848Z,91986.89
2019-03-19T09:19:07.220Z,91983.56
2019-03-19T09:21:55.344Z,91988.95
2019-03-19T09:24:43.777Z,91983.08
2019-03-19T09:27:31.835Z,91984.97
2019-03-19T09:30:20.764Z,91979.30
2019-03-19T09:33:09.098Z,91988.78
2019-03-19T09:35:57.587Z,91986.64
2019-03-19T09:38:46.244Z,91979.43
2019-03-19T09:41:34.868Z,91980.08
2019-03-19T09:44:22.463Z,91974.20
2019-03-19T09:47:10.978Z,91977.22
2019-03-19T09:49:58.820Z,91976.08
2019-03-19T09:52:47.498Z,91974.19
2019-03-19T09:55:35.788Z,91976.46
2019-03-19T09:58:24.192Z,91977.34
2019-03-19T10:01:14.726Z,91965.09
2019-03-19T10:04:06.538Z,91964.54
2019-03-19T10:06:54.168Z,91962.02
2019-03-19T10:09:41.963Z,91961.88
2019-03-19T10:12:29.940Z,91958.30
2019-03-19T10:15:18.315Z,91960.03
2019-03-19T10:18:06.585Z,91955.42
2019-03-19T10:20:54.439Z,91959.59
2019-03-19T10:23:42.745Z,91955.16
2019-03-19T10:26:31.533Z,91960.02
2019-03-19T10:29:20.045Z,91958.05
2019-03-19T10:32:09.952Z,91955.64
2019-03-19T10:38:05.124Z,91953.02
2019-03-19T10:40:53.701Z,91946.48
2019-03-19T10:43:42.218Z,91953.45
2019-03-19T10:46:31.770Z,91948.50
2019-03-19T10:49:20.634Z,91951.75
2019-03-19T10:52:08.642Z,91947.53
2019-03-19T10:54:57.089Z,91948.56
2019-03-19T10:57:46.179Z,91949.72
2019-03-19T11:00:34.721Z,91949.12
2019-03-19T11:03:22.600Z,91946.41
2019-03-19T11:06:13.405Z,91941.38
2019-03-19T11:09:01.967Z,91945.37
2019-03-19T11:11:49.889Z,91944.81
2019-03-19T11:14:38.011Z,91940.72
2019-03-19T11:17:28.446Z,91933.88
2019-03-19T11:20:16.913Z,91933.59
2019-03-19T11:23:05.180Z,91933.75
2019-03-19T11:25:54.751Z,91924.69
2019-03-19T11:28:42.752Z,91919.66
2019-03-19T11:31:31.265Z,91915.97
2019-03-19T11:34:19.529Z,91912.73
2019-03-19T11:37:08.012Z,91912.80
2019-03-19T11:39:55.802Z,91909.02
2019-03-19T11:42:44.199Z,91908.97
2019-03-19T11:45:32.440Z,91904.91
2019-03-19T11:48:20.991Z,91910.03
2019-03-19T11:51:09.220Z,91908.80
2019-03-19T11:53:58.214Z,91904.41
2019-03-19T11:56:46.323Z,91905.55
2019-03-19T11:59:35.116Z,91900.39
2019-03-19T12:02:26.253Z,91899.11
2019-03-19T12:05:13.162Z,91897.36
2019-03-19T12:08:01.617Z,91898.33
2019-03-19T12:10:50.207Z,91898.06
2019-03-19T12:13:38.708Z,91897.70
2019-03-19T12:16:27.245Z,91901.89
2019-03-19T12:19:15.761Z,91899.06
2019-03-19T12:22:03.571Z,91890.00
2019-03-19T12:24:52.571Z,91888.53
2019-03-19T12:27:40.893Z,91895.55
2019-03-19T12:30:28.996Z,91896.09
2019-03-19T12:33:18.351Z,91896.50
2019-03-19T12:36:06.558Z,91897.94
2019-03-19T12:38:55.284Z,91891.42
2019-03-19T12:41:43.760Z,91887.53
2019-03-19T12:44:32.409Z,91890.08
2019-03-19T12:47:20.942Z,91882.95
2019-03-19T12:50:10.836Z,91892.41
2019-03-19T12:56:05.942Z,91888.14
2019-03-19T12:58:54.404Z,91875.76
2019-03-19T13:01:42.249Z,91880.86
2019-03-19T13:04:31.070Z,91882.11
2019-03-19T13:07:19.611Z,91889.14
2019-03-19T13:10:09.479Z,91883.98
2019-03-19T13:12:58.053Z,91883.37
2019-03-19T13:15:46.711Z,91883.41
2019-03-19T13:18:35.269Z,91884.23
2019-03-19T13:21:23.814Z,91874.60
2019-03-19T13:24:12.589Z,91884.45
2019-03-19T13:27:00.746Z,91881.56
2019-03-19T13:29:48.622Z,91885.57
2019-03-19T13:32:37.323Z,91867.24
2019-03-19T13:35:25.688Z,91869.72
2019-03-19T13:38:14.237Z,91880.30
2019-03-19T13:41:01.842Z,91875.08
2019-03-19T13:43:50.020Z,91869.69
2019-03-19T13:46:38.621Z,91880.73
2019-03-19T13:49:27.198Z,91891.16
2019-03-19T13:52:15.032Z,91881.39
2019-03-19T13:55:03.227Z,91893.86
2019-03-19T13:57:52.795Z,91895.52
2019-03-19T14:00:41.447Z,91892.13
2019-03-19T14:03:34.510Z,91890.69
2019-03-19T14:06:45.808Z,91895.47
2019-03-19T14:09:33.488Z,91896.36
2019-03-19T14:12:28.028Z,91894.73
2019-03-19T14:15:37.102Z,91902.89
2019-03-19T14:18:44.659Z,91904.17
2019-03-19T14:22:18.923Z,91904.09
2019-03-19T14:25:45.892Z,91906.64
2019-03-19T14:28:48.248Z,91909.16
2019-03-19T14:32:16.757Z,91903.45
2019-03-19T14:35:42.807Z,91918.72
2019-03-19T14:38:54.382Z,91920.50
2019-03-19T14:41:45.954Z,91920.67
2019-03-19T14:44:35.030Z,91920.89
2019-03-19T14:47:24.092Z,91910.11
2019-03-19T14:50:12.823Z,91935.08
2019-03-19T14:53:01.138Z,91936.63
2019-03-19T14:55:49.681Z,91930.43
2019-03-19T14:58:38.589Z,91939.63
2019-03-19T15:01:27.071Z,91935.53
2019-03-19T15:04:15.541Z,91936.62
2019-03-19T15:07:04.300Z,91939.53
2019-03-19T15:09:52.812Z,91939.84
2019-03-19T15:12:41.310Z,91942.38
2019-03-19T15:15:53.106Z,91944.67
2019-03-19T15:19:05.914Z,91946.25
2019-03-19T15:21:54.299Z,91949.10
2019-03-19T15:25:22.391Z,91956.91
2019-03-19T15:28:10.521Z,91963.77
2019-03-19T15:30:58.927Z,91969.48
2019-03-19T15:33:47.638Z,91974.30
2019-03-19T15:36:36.121Z,91977.06
2019-03-19T15:39:23.916Z,91980.28
2019-03-19T15:42:11.895Z,91982.30
2019-03-19T15:45:05.992Z,91984.67
2019-03-19T15:47:53.904Z,91987.34
2019-03-19T15:50:41.861Z,91992.23
2019-03-19T15:53:30.937Z,91991.16
2019-03-19T15:56:18.763Z,91996.60
2019-03-19T15:59:07.706Z,92002.34
2019-03-19T16:01:56.249Z,92006.18
2019-03-19T16:04:43.880Z,92008.47
2019-03-19T16:07:32.106Z,92007.87
2019-03-19T16:10:20.400Z,92017.16
2019-03-19T16:13:08.491Z,92017.34
2019-03-19T16:15:57.394Z,92034.52
2019-03-19T16:18:46.036Z,92029.79
2019-03-19T16:21:34.255Z,92038.45
2019-03-19T16:24:21.983Z,92040.39
2019-03-19T16:27:10.073Z,92038.68
2019-03-19T16:30:03.989Z,92044.02
2019-03-19T16:32:51.899Z,92046.54
2019-03-19T16:35:43.179Z,92055.60
2019-03-19T16:39:11.372Z,92060.34
2019-03-19T16:42:22.153Z,92064.95
2019-03-19T16:45:17.769Z,92079.21
2019-03-19T16:48:26.983Z,92082.36
2019-03-19T16:51:25.581Z,92090.59
2019-03-19T16:54:16.457Z,92098.13
2019-03-19T16:57:05.029Z,92098.52
2019-03-19T16:59:53.604Z,92097.22
2019-03-19T17:02:41.975Z,92102.05
2019-03-19T17:05:30.183Z,92104.16
2019-03-19T17:08:18.672Z,92102.88
2019-03-19T17:11:06.891Z,92108.30
2019-03-19T17:13:36.740Z,92116.83
2019-03-19T17:16:06.590Z,92119.59
2019-03-19T17:18:36.520Z,92128.30
2019-03-19T17:21:06.385Z,92132.84
2019-03-19T17:23:37.632Z,92137.91
2019-03-19T17:26:07.463Z,92142.94
2019-03-19T17:28:38.071Z,92148.42
2019-03-19T17:31:07.896Z,92154.38
2019-03-19T17:33:37.820Z,92153.53
2019-03-19T17:36:07.656Z,92151.19
2019-03-19T17:38:37.863Z,92166.09
2019-03-19T17:41:07.732Z,92166.19
2019-03-19T17:43:37.600Z,92181.86
2019-03-19T17:46:07.440Z,92181.01
2019-03-19T17:48:37.407Z,92176.27
2019-03-19T17:51:07.739Z,92176.41
2019-03-19T17:53:37.558Z,92182.85
2019-03-19T17:56:09.889Z,92191.14
2019-03-19T17:58:39.188Z,92189.96
2019-03-19T18:01:17.116Z,92196.33
2019-03-19T18:03:40.993Z,92208.64
2019-03-19T18:06:10.814Z,92208.59
2019-03-19T18:08:40.639Z,92206.84
2019-03-19T18:11:10.872Z,92202.98
2019-03-19T18:13:40.688Z,92202.59
2019-03-19T18:16:11.292Z,92207.73
2019-03-19T18:18:41.161Z,92216.09
2019-03-19T18:21:10.983Z,92211.28
2019-03-19T18:23:41.349Z,92213.32
2019-03-19T18:26:11.215Z,92218.55
2019-03-19T18:28:41.055Z,92222.57
2019-03-19T18:31:10.883Z,92221.38
2019-03-19T18:33:40.794Z,92230.42
2019-03-19T18:36:10.623Z,92233.16
2019-03-19T18:38:40.450Z,92248.28
2019-03-19T18:41:10.344Z,92258.36
2019-03-19T18:43:41.232Z,92260.13
2019-03-19T18:46:11.065Z,92270.50
2019-03-19T18:48:41.027Z,92267.52
2019-03-19T18:51:10.854Z,92269.31
2019-03-19T18:53:40.751Z,92271.58
2019-03-19T18:56:10.610Z,92272.20
2019-03-19T18:58:40.488Z,92275.35
2019-03-19T19:01:10.302Z,92281.65
2019-03-19T19:03:40.395Z,92287.34
2019-03-19T19:06:11.033Z,92286.80
2019-03-19T19:08:40.876Z,92288.75
2019-03-19T19:11:10.783Z,92285.88
2019-03-19T19:13:40.943Z,92289.66
2019-03-19T19:16:10.798Z,92294.63
2019-03-19T19:18:47.284Z,92300.72
2019-03-19T19:21:55.994Z,92305.53
2019-03-19T19:24:46.337Z,92303.84
2019-03-19T19:27:34.703Z,92312.34
2019-03-19T19:30:05.285Z,92309.42
2019-03-19T19:32:35.131Z,92313.24
2019-03-19T19:35:05.431Z,92309.47
2019-03-19T19:37:35.709Z,92318.98
2019-03-19T19:40:06.473Z,92323.92
2019-03-19T19:42:36.298Z,92324.05
2019-03-19T19:45:07.379Z,92328.98
2019-03-19T19:47:37.211Z,92330.14
2019-03-19T19:50:07.761Z,92330.77
2019-03-19T19:52:37.622Z,92342.30
2019-03-19T19:55:08.324Z,92335.09
2019-03-19T19:57:38.249Z,92340.59
2019-03-19T20:00:09.385Z,92337.19
2019-03-19T20:02:39.242Z,92338.56
2019-03-19T20:05:09.196Z,92341.97
2019-03-19T20:07:39.078Z,92347.61
2019-03-19T20:10:10.284Z,92347.19
2019-03-19T20:12:40.439Z,92354.94
2019-03-19T20:15:10.406Z,92360.61
2019-03-19T20:17:40.245Z,92365.16
2019-03-19T20:20:12.563Z,92366.14
2019-03-19T20:22:44.700Z,92374.42
2019-03-19T20:25:13.950Z,92372.64
2019-03-19T20:27:43.822Z,92373.69
2019-03-19T20:30:15.170Z,92372.11
2019-03-19T20:32:44.995Z,92376.52
2019-03-19T20:35:15.302Z,92377.48
2019-03-19T20:37:45.124Z,92378.00
2019-03-19T20:40:15.099Z,92374.73
2019-03-19T20:42:45.548Z,92381.35
2019-03-19T20:45:15.391Z,92388.03
2019-03-19T20:47:45.248Z,92392.34
2019-03-19T20:50:16.625Z,92393.33
2019-03-19T20:52:46.570Z,92390.94
2019-03-19T20:55:16.832Z,92398.25
2019-03-19T20:57:46.852Z,92405.22
2019-03-19T21:00:35.561Z,92407.39
2019-03-19T21:03:35.209Z,92400.43
2019-03-19T21:06:14.028Z,92394.64
2019-03-19T21:09:01.790Z,92405.05
2019-03-19T21:11:50.101Z,92403.52
2019-03-19T21:14:38.223Z,92408.22
2019-03-19T21:17:37.114Z,92410.62
2019-03-19T21:20:25.679Z,92407.95
2019-03-19T21:23:14.141Z,92409.80
2019-03-19T21:26:02.026Z,92414.38
2019-03-19T21:28:50.636Z,92413.87
2019-03-19T21:31:38.980Z,92412.34
2019-03-19T21:34:27.426Z,92411.30
2019-03-19T21:37:15.761Z,92409.63
2019-03-19T21:40:04.491Z,92411.10
2019-03-19T21:42:56.206Z,92417.11
2019-03-19T21:45:44.929Z,92419.02
2019-03-19T21:48:36.497Z,92420.81
2019-03-19T21:51:24.437Z,92426.57
2019-03-19T21:54:12.352Z,92427.80
2019-03-19T21:57:00.056Z,92424.20
2019-03-19T21:59:49.319Z,92420.55
2019-03-19T22:02:36.851Z,92415.48
2019-03-19T22:05:24.693Z,92421.72
2019-03-19T22:08:13.169Z,92420.09
2019-03-19T22:11:01.108Z,92420.92
2019-03-19T22:13:49.579Z,92415.66
2019-03-19T22:16:38.220Z,92428.40
2019-03-19T22:19:26.707Z,92428.16
2019-03-19T22:22:16.606Z,92422.53
2019-03-19T22:25:05.253Z,92430.52
2019-03-19T22:27:54.088Z,92423.10
2019-03-19T22:30:41.824Z,92425.19
2019-03-19T22:33:33.488Z,92430.45
2019-03-19T22:36:20.205Z,92433.53
2019-03-19T22:39:08.980Z,92431.47
2019-03-19T22:41:57.927Z,92430.97
2019-03-19T22:44:46.528Z,92431.22
2019-03-19T22:47:34.678Z,92430.32
2019-03-19T22:50:05.136Z,92427.41
2019-03-19T22:52:35.068Z,92435.50
2019-03-19T22:55:05.118Z,92440.11
2019-03-19T22:57:35.720Z,92432.88
2019-03-19T23:00:07.146Z,92442.81
2019-03-19T23:02:42.551Z,92447.60
2019-03-19T23:05:13.819Z,92447.64
2019-03-19T23:07:43.656Z,92445.25
2019-03-19T23:10:16.250Z,92449.52
2019-03-19T23:12:46.603Z,92447.84
2019-03-19T23:15:16.440Z,92456.24
2019-03-19T23:17:46.677Z,92454.30
2019-03-19T23:20:17.063Z,92455.20
2019-03-19T23:22:46.927Z,92457.94
2019-03-19T23:25:16.949Z,92454.64
2019-03-19T23:27:46.776Z,92458.95
2019-03-19T23:30:16.614Z,92453.35
2019-03-19T23:32:46.463Z,92460.17
2019-03-19T23:35:16.293Z,92459.16
2019-03-19T23:37:46.124Z,92462.73
2019-03-19T23:40:16.108Z,92465.83
2019-03-19T23:42:46.376Z,92459.81
2019-03-19T23:45:16.305Z,92473.23
2019-03-19T23:47:46.211Z,92470.05
2019-03-19T23:50:17.318Z,92471.48
2019-03-19T23:52:47.359Z,92475.75
2019-03-19T23:55:17.573Z,92480.17
2019-03-19T23:57:47.388Z,92481.81
